Terminal Aerodrome Forecast
Issued by NWS Blacksburg, VA

Current Version | Previous Version | Text Only | Print | Product List | Glossary Off
Versions: 1 2 3 4 5 6 7 8 9 10 11 12 13 14 15 16 17 18 19 20 21 22 23 24 25 26 27 28 29 30 31 32 33 34 35 36 37 38 39 40 41 42 43 44 45 46 47 48 49 50

000
FTUS41 KRNK 291137
TAFBLF
TAF
KBLF 291137Z 2912/3012 VRB03KT 5SM BR BKN008 OVC100
     FM291400 28004KT P6SM BKN015 OVC100
     FM291600 29005KT P6SM BKN035 BKN100 OVC250
     FM292000 VRB04KT P6SM VCTS BKN040CB BKN250
     FM300000 VRB03KT P6SM SCT040 BKN250
     FM300800 26004KT P6SM BKN050 OVC100=

USA.gov is the U.S. government's official web portal to all federal, state and local government web resources and services.